createdAt,value
2023-05-05T00:01:22.155Z,8.75
2023-05-05T00:03:49.192Z,8.77
2023-05-05T00:06:16.184Z,8.82
2023-05-05T00:08:42.903Z,8.76
2023-05-05T00:11:09.704Z,8.80
2023-05-05T00:13:36.470Z,8.74
2023-05-05T00:16:03.273Z,8.78
2023-05-05T00:18:30.214Z,8.83
2023-05-05T00:20:57.055Z,8.81
2023-05-05T00:23:23.693Z,8.83
2023-05-05T00:25:50.355Z,8.88
2023-05-05T00:28:17.295Z,8.81
2023-05-05T00:30:44.071Z,8.75
2023-05-05T00:33:11.147Z,8.80
2023-05-05T00:35:37.982Z,8.78
2023-05-05T00:38:05.046Z,8.74
2023-05-05T00:40:31.863Z,8.70
2023-05-05T00:42:59.645Z,8.61
2023-05-05T00:45:26.584Z,8.56
2023-05-05T00:47:59.204Z,8.54
2023-05-05T00:50:30.934Z,8.46
2023-05-05T00:53:03.781Z,8.42
2023-05-05T00:55:32.056Z,8.50
2023-05-05T00:58:00.312Z,8.43
2023-05-05T01:00:28.277Z,8.34
2023-05-05T01:02:55.600Z,8.24
2023-05-05T01:05:24.546Z,8.22
2023-05-05T01:08:00.222Z,8.15
2023-05-05T01:10:34.847Z,8.08
2023-05-05T01:13:09.000Z,8.00
2023-05-05T01:15:46.579Z,7.99
2023-05-05T01:18:28.520Z,8.11
2023-05-05T01:20:55.136Z,7.97
2023-05-05T01:23:59.321Z,7.96
2023-05-05T01:26:52.013Z,7.81
2023-05-05T01:29:24.492Z,7.84
2023-05-05T01:31:57.887Z,7.80
2023-05-05T01:34:27.944Z,7.82
2023-05-05T01:37:10.092Z,7.74
2023-05-05T01:39:39.066Z,7.83
2023-05-05T01:42:10.233Z,7.84
2023-05-05T01:44:38.282Z,7.88
2023-05-05T01:47:06.612Z,7.79
2023-05-05T01:49:36.118Z,7.73
2023-05-05T01:52:05.012Z,7.70
2023-05-05T01:54:34.632Z,7.69
2023-05-05T01:57:04.875Z,7.62
2023-05-05T01:59:33.369Z,7.58
2023-05-05T02:02:02.836Z,7.56
2023-05-05T02:04:31.699Z,7.50
2023-05-05T02:06:59.686Z,7.50
2023-05-05T02:09:28.620Z,7.51
2023-05-05T02:11:58.147Z,7.48
2023-05-05T02:14:28.758Z,7.48
2023-05-05T02:16:57.076Z,7.44
2023-05-05T02:19:30.966Z,7.56
2023-05-05T02:21:58.193Z,7.61
2023-05-05T02:24:26.468Z,7.58
2023-05-05T02:26:55.094Z,7.54
2023-05-05T02:29:31.388Z,7.54
2023-05-05T02:32:05.056Z,7.54
2023-05-05T02:34:36.799Z,7.44
2023-05-05T02:37:11.192Z,7.45
2023-05-05T02:39:45.380Z,7.45
2023-05-05T02:42:20.390Z,7.38
2023-05-05T02:44:51.807Z,7.35
2023-05-05T02:47:20.856Z,7.33
2023-05-05T02:49:48.241Z,7.23
2023-05-05T02:52:15.036Z,7.31
2023-05-05T02:54:44.029Z,7.30
2023-05-05T02:57:20.366Z,7.22
2023-05-05T03:00:05.991Z,7.15
2023-05-05T03:02:45.239Z,7.08
2023-05-05T03:05:21.764Z,7.02
2023-05-05T03:07:56.069Z,7.00
2023-05-05T03:10:32.534Z,7.01
2023-05-05T03:13:03.040Z,6.96
2023-05-05T03:15:52.444Z,6.93
2023-05-05T03:18:24.252Z,6.90
2023-05-05T03:20:59.159Z,6.95
2023-05-05T03:23:26.043Z,6.97
2023-05-05T03:25:57.604Z,7.06
2023-05-05T03:28:37.514Z,6.84
2023-05-05T03:31:12.980Z,6.75
2023-05-05T03:33:39.822Z,6.73
2023-05-05T03:36:06.781Z,6.69
2023-05-05T03:38:34.237Z,6.68
2023-05-05T03:41:03.306Z,6.67
2023-05-05T03:43:31.021Z,6.71
2023-05-05T03:45:58.259Z,6.80
2023-05-05T03:48:25.427Z,6.78
2023-05-05T03:50:53.932Z,6.73
2023-05-05T03:53:22.725Z,6.70
2023-05-05T03:55:49.488Z,6.73
2023-05-05T03:58:16.698Z,6.73
2023-05-05T04:00:43.402Z,6.73
2023-05-05T04:03:11.582Z,6.83
2023-05-05T04:05:38.639Z,6.85
2023-05-05T04:08:05.746Z,6.90
2023-05-05T04:10:32.744Z,6.96
2023-05-05T04:13:00.473Z,7.02
2023-05-05T04:15:28.983Z,7.10
2023-05-05T04:17:55.867Z,7.09
2023-05-05T04:20:22.647Z,7.10
2023-05-05T04:22:52.651Z,7.11
2023-05-05T04:25:21.135Z,7.16
2023-05-05T04:27:49.091Z,7.24
2023-05-05T04:30:16.020Z,7.25
2023-05-05T04:32:43.017Z,7.25
2023-05-05T04:35:11.337Z,7.34
2023-05-05T04:37:38.449Z,7.41
2023-05-05T04:40:05.924Z,7.51
2023-05-05T04:42:34.078Z,7.64
2023-05-05T04:45:02.038Z,7.66
2023-05-05T04:47:29.673Z,7.67
2023-05-05T04:49:56.443Z,7.77
2023-05-05T04:52:23.115Z,7.89
2023-05-05T04:54:49.892Z,8.00
2023-05-05T04:57:17.352Z,8.09
2023-05-05T04:59:44.184Z,8.20
2023-05-05T05:02:10.869Z,8.36
2023-05-05T05:04:37.508Z,8.50
2023-05-05T05:07:04.164Z,8.63
2023-05-05T05:09:31.503Z,8.82
2023-05-05T05:12:04.505Z,8.97
2023-05-05T05:14:36.814Z,9.24
2023-05-05T05:17:04.233Z,9.39
2023-05-05T05:19:31.164Z,9.55
2023-05-05T05:21:58.337Z,9.74
2023-05-05T05:24:26.244Z,9.97
2023-05-05T05:26:53.979Z,10.18
2023-05-05T05:29:20.697Z,10.37
2023-05-05T05:31:48.501Z,10.56
2023-05-05T05:34:15.237Z,10.75
2023-05-05T05:36:42.819Z,10.75
2023-05-05T05:39:09.617Z,11.16
2023-05-05T05:41:36.292Z,11.65
2023-05-05T05:44:03.427Z,12.06
2023-05-05T05:46:30.761Z,12.49
2023-05-05T05:48:57.791Z,12.75
2023-05-05T05:51:25.016Z,13.05
2023-05-05T05:53:52.362Z,13.31
2023-05-05T05:56:19.350Z,13.55
2023-05-05T05:58:48.530Z,13.99
2023-05-05T06:01:16.056Z,13.84
2023-05-05T06:03:43.677Z,13.87
2023-05-05T06:06:10.985Z,14.02
2023-05-05T06:08:37.819Z,14.53
2023-05-05T06:11:04.567Z,14.88
2023-05-05T06:13:31.279Z,15.28
2023-05-05T06:15:57.973Z,15.33
2023-05-05T06:18:24.918Z,15.50
2023-05-05T06:20:52.397Z,14.96
2023-05-05T06:23:21.253Z,14.81
2023-05-05T06:25:54.620Z,14.73
2023-05-05T06:28:21.550Z,14.91
2023-05-05T06:30:48.195Z,15.12
2023-05-05T06:33:14.869Z,15.53
2023-05-05T06:35:41.503Z,15.82
2023-05-05T06:38:08.195Z,16.10
2023-05-05T06:40:34.808Z,16.30
2023-05-05T06:43:01.533Z,16.29
2023-05-05T06:45:34.311Z,16.25
2023-05-05T06:48:00.995Z,15.95
2023-05-05T06:50:27.691Z,16.28
2023-05-05T06:52:54.417Z,16.18
2023-05-05T06:55:21.259Z,16.42
2023-05-05T06:57:47.917Z,17.05
2023-05-05T07:00:15.314Z,17.58
2023-05-05T07:02:42.019Z,18.32
2023-05-05T07:05:08.940Z,18.52
2023-05-05T07:07:36.368Z,19.05
2023-05-05T07:10:03.083Z,19.02
2023-05-05T07:12:33.786Z,19.23
2023-05-05T07:15:03.213Z,20.00
2023-05-05T07:17:36.276Z,20.70
2023-05-05T07:20:03.094Z,21.34
2023-05-05T07:22:29.708Z,21.96
2023-05-05T07:24:56.352Z,21.96
2023-05-05T07:27:23.144Z,22.19
2023-05-05T07:29:49.880Z,22.50
2023-05-05T07:32:16.638Z,23.07
2023-05-05T07:34:44.494Z,23.46
2023-05-05T07:37:11.176Z,23.13
2023-05-05T07:39:37.808Z,23.71
2023-05-05T07:42:04.524Z,23.50
2023-05-05T07:44:31.722Z,23.34
2023-05-05T07:46:58.472Z,23.87
2023-05-05T07:49:25.386Z,24.23
2023-05-05T07:51:52.140Z,24.57
2023-05-05T07:54:19.155Z,24.37
2023-05-05T07:56:45.903Z,25.23
2023-05-05T07:59:13.042Z,25.23
2023-05-05T08:01:39.773Z,25.14
2023-05-05T08:04:06.667Z,25.10
2023-05-05T08:06:33.567Z,25.70
2023-05-05T08:09:01.424Z,25.68
2023-05-05T08:11:29.641Z,25.77
2023-05-05T08:13:56.423Z,25.63
2023-05-05T08:16:23.094Z,26.39
2023-05-05T08:18:49.760Z,26.39
2023-05-05T08:21:16.470Z,26.94
2023-05-05T08:23:43.087Z,27.81
2023-05-05T08:26:09.737Z,27.40
2023-05-05T08:28:36.890Z,27.93
2023-05-05T08:31:06.900Z,27.93
2023-05-05T08:33:33.654Z,26.90
2023-05-05T08:36:00.436Z,27.70
2023-05-05T08:38:27.253Z,28.15
2023-05-05T08:40:53.934Z,28.42
2023-05-05T08:43:22.859Z,27.81
2023-05-05T08:45:51.308Z,28.07
2023-05-05T08:48:22.778Z,28.22
2023-05-05T08:50:59.960Z,28.19
2023-05-05T08:53:52.712Z,27.80
2023-05-05T08:56:21.917Z,28.60
2023-05-05T08:58:50.950Z,28.68
2023-05-05T09:01:18.441Z,28.22
2023-05-05T09:03:46.257Z,28.87
2023-05-05T09:06:13.046Z,29.04
2023-05-05T09:08:39.955Z,29.05
2023-05-05T09:11:06.643Z,29.55
2023-05-05T09:13:33.339Z,30.03
2023-05-05T09:16:00.043Z,30.21
2023-05-05T09:18:27.153Z,30.42
2023-05-05T09:20:53.783Z,31.03
2023-05-05T09:23:21.460Z,30.50
2023-05-05T09:26:03.746Z,31.13
2023-05-05T09:28:30.792Z,30.73
2023-05-05T09:31:12.659Z,30.66
2023-05-05T09:33:39.328Z,30.51
2023-05-05T09:36:06.309Z,31.05
2023-05-05T09:38:34.860Z,30.51
2023-05-05T09:41:01.615Z,31.39
2023-05-05T09:43:28.267Z,31.58
2023-05-05T09:46:07.658Z,31.80
2023-05-05T09:48:34.575Z,31.40
2023-05-05T09:51:01.416Z,31.92
2023-05-05T09:53:39.103Z,31.88
2023-05-05T09:56:06.964Z,31.86
2023-05-05T09:58:33.739Z,31.37
2023-05-05T10:01:00.740Z,31.78
2023-05-05T10:03:27.480Z,32.48
2023-05-05T10:05:56.535Z,32.72
2023-05-05T10:08:24.323Z,32.35
2023-05-05T10:10:54.901Z,32.40
2023-05-05T10:13:23.645Z,32.69
2023-05-05T10:15:53.131Z,32.89
2023-05-05T10:18:22.472Z,32.69
2023-05-05T10:21:03.225Z,32.76
2023-05-05T10:23:57.920Z,33.27
2023-05-05T10:26:27.633Z,34.12
2023-05-05T10:29:03.141Z,32.91
2023-05-05T10:31:52.547Z,32.63
2023-05-05T10:34:39.313Z,33.37
2023-05-05T10:37:06.896Z,34.01
2023-05-05T10:39:37.513Z,33.09
2023-05-05T10:42:04.440Z,32.93
2023-05-05T10:44:34.213Z,33.30
2023-05-05T10:47:02.128Z,33.65
2023-05-05T10:49:44.767Z,34.12
2023-05-05T10:52:25.942Z,34.43
2023-05-05T10:55:07.828Z,39.77
2023-05-05T10:57:38.813Z,41.37
2023-05-05T11:00:08.519Z,41.88
2023-05-05T11:02:36.197Z,42.27
2023-05-05T11:05:08.244Z,41.19
2023-05-05T11:07:35.539Z,41.87
2023-05-05T11:10:05.204Z,41.06
2023-05-05T11:12:33.577Z,43.82
2023-05-05T11:15:22.215Z,41.15
2023-05-05T11:17:49.031Z,42.27
2023-05-05T11:20:15.920Z,42.78
2023-05-05T11:23:04.845Z,42.49
2023-05-05T11:25:35.217Z,43.20
2023-05-05T11:28:12.059Z,43.60
2023-05-05T11:30:58.163Z,41.26
2023-05-05T11:33:45.763Z,43.28
2023-05-05T11:36:14.717Z,43.74
2023-05-05T11:39:23.071Z,44.33
2023-05-05T11:41:58.586Z,44.37
2023-05-05T11:44:35.711Z,44.11
2023-05-05T11:47:05.143Z,43.12
2023-05-05T11:49:32.820Z,43.25
2023-05-05T11:52:00.465Z,41.54
2023-05-05T11:54:27.486Z,42.69
2023-05-05T11:57:08.434Z,40.77
2023-05-05T11:59:37.506Z,42.42
2023-05-05T12:02:04.755Z,43.65
2023-05-05T12:04:32.200Z,44.86
2023-05-05T12:06:59.409Z,44.63
2023-05-05T12:09:27.244Z,43.20
2023-05-05T12:11:56.587Z,43.20
2023-05-05T12:14:24.364Z,44.02
2023-05-05T12:17:03.043Z,43.64
2023-05-05T12:19:33.158Z,41.73
2023-05-05T12:22:01.034Z,41.47
2023-05-05T12:24:28.082Z,41.45
2023-05-05T12:26:54.743Z,42.71
2023-05-05T12:29:28.801Z,43.92
2023-05-05T12:31:58.145Z,42.68
2023-05-05T12:34:25.001Z,45.33
2023-05-05T12:36:51.898Z,44.01
2023-05-05T12:39:18.915Z,43.79
2023-05-05T12:41:45.744Z,44.60
2023-05-05T12:44:12.403Z,45.23
2023-05-05T12:46:46.060Z,45.72
2023-05-05T12:49:12.747Z,43.80
2023-05-05T12:51:52.181Z,44.20
2023-05-05T12:54:18.824Z,44.33
2023-05-05T12:56:47.986Z,45.21
2023-05-05T12:59:24.157Z,44.40
2023-05-05T13:01:55.546Z,44.50
2023-05-05T13:04:27.491Z,43.87
2023-05-05T13:07:12.205Z,43.73
2023-05-05T13:09:39.196Z,44.63
2023-05-05T13:12:08.269Z,45.51
2023-05-05T13:14:36.358Z,44.11
2023-05-05T13:17:03.461Z,44.98
2023-05-05T13:19:30.813Z,44.10
2023-05-05T13:21:58.765Z,43.62
2023-05-05T13:24:38.064Z,40.10
2023-05-05T13:27:09.584Z,41.73
2023-05-05T13:29:36.384Z,40.49
2023-05-05T13:32:03.322Z,41.17
2023-05-05T13:34:30.179Z,40.88
2023-05-05T13:36:56.857Z,36.72
2023-05-05T13:39:23.559Z,37.08
2023-05-05T13:41:50.466Z,36.78
2023-05-05T13:44:17.216Z,35.90
2023-05-05T13:46:43.955Z,35.71
2023-05-05T13:49:11.213Z,35.36
2023-05-05T13:51:39.195Z,34.83
2023-05-05T13:54:06.932Z,34.84
2023-05-05T13:56:34.363Z,34.59
2023-05-05T13:59:01.409Z,34.03
2023-05-05T14:01:28.689Z,34.31
2023-05-05T14:03:57.236Z,34.17
2023-05-05T14:06:24.501Z,33.65
2023-05-05T14:08:51.676Z,33.21
2023-05-05T14:11:18.399Z,33.28
2023-05-05T14:13:46.498Z,33.66
2023-05-05T14:16:13.516Z,33.27
2023-05-05T14:18:40.804Z,33.90
2023-05-05T14:21:07.630Z,33.44
2023-05-05T14:23:34.335Z,33.36
2023-05-05T14:26:01.197Z,32.65
2023-05-05T14:28:27.833Z,32.58
2023-05-05T14:30:54.582Z,30.77
2023-05-05T14:33:22.182Z,31.02
2023-05-05T14:35:49.082Z,30.85
2023-05-05T14:38:15.943Z,31.15
2023-05-05T14:40:42.672Z,30.56
2023-05-05T14:43:09.383Z,30.44
2023-05-05T14:45:36.071Z,28.94
2023-05-05T14:48:02.834Z,28.25
2023-05-05T14:50:29.537Z,28.01
2023-05-05T14:52:56.352Z,27.59
2023-05-05T14:55:24.936Z,27.74
2023-05-05T14:57:51.992Z,28.45
2023-05-05T15:00:19.153Z,28.13
2023-05-05T15:02:48.012Z,28.39
2023-05-05T15:05:14.983Z,28.01
2023-05-05T15:07:41.729Z,28.13
2023-05-05T15:10:08.725Z,28.08
2023-05-05T15:12:35.560Z,27.96
2023-05-05T15:15:02.267Z,27.27
2023-05-05T15:17:30.759Z,26.95
2023-05-05T15:19:57.661Z,26.58
2023-05-05T15:22:24.355Z,26.01
2023-05-05T15:24:51.030Z,25.83
2023-05-05T15:27:18.316Z,25.46
2023-05-05T15:29:45.302Z,25.49
2023-05-05T15:32:12.206Z,25.33
2023-05-05T15:34:38.909Z,25.49
2023-05-05T15:37:05.743Z,25.20
2023-05-05T15:39:32.405Z,25.22
2023-05-05T15:42:02.680Z,25.21
2023-05-05T15:44:30.028Z,25.31
2023-05-05T15:46:56.764Z,25.03
2023-05-05T15:49:23.439Z,25.15
2023-05-05T15:51:50.078Z,24.99
2023-05-05T15:54:16.798Z,25.10
2023-05-05T15:56:43.538Z,25.09
2023-05-05T15:59:10.272Z,25.02
2023-05-05T16:01:37.087Z,24.87
2023-05-05T16:04:03.965Z,24.87
2023-05-05T16:06:30.649Z,24.57
2023-05-05T16:08:58.628Z,24.56
2023-05-05T16:11:26.567Z,24.35
2023-05-05T16:13:53.776Z,23.86
2023-05-05T16:16:20.796Z,23.85
2023-05-05T16:18:47.722Z,23.71
2023-05-05T16:21:14.471Z,23.59
2023-05-05T16:23:41.408Z,23.43
2023-05-05T16:26:08.425Z,23.41
2023-05-05T16:28:35.102Z,23.13
2023-05-05T16:31:02.286Z,23.06
2023-05-05T16:33:29.339Z,23.14
2023-05-05T16:35:56.176Z,22.97
2023-05-05T16:38:23.028Z,22.79
2023-05-05T16:40:49.721Z,22.58
2023-05-05T16:43:16.469Z,22.53
2023-05-05T16:45:43.619Z,22.30
2023-05-05T16:48:10.410Z,22.27
2023-05-05T16:50:37.694Z,22.14
2023-05-05T16:53:04.386Z,22.02
2023-05-05T16:55:31.529Z,22.08
2023-05-05T16:57:58.163Z,21.86
2023-05-05T17:00:25.208Z,21.93
2023-05-05T17:02:53.142Z,21.88
2023-05-05T17:05:19.837Z,21.86
2023-05-05T17:07:50.118Z,21.80
2023-05-05T17:10:16.906Z,21.57
2023-05-05T17:12:43.702Z,21.44
2023-05-05T17:15:10.960Z,21.32
2023-05-05T17:17:37.987Z,21.18
2023-05-05T17:20:05.533Z,21.12
2023-05-05T17:22:32.243Z,21.02
2023-05-05T17:24:59.179Z,20.83
2023-05-05T17:27:26.394Z,20.72
2023-05-05T17:29:53.674Z,20.60
2023-05-05T17:32:20.409Z,20.40
2023-05-05T17:34:47.063Z,20.28
2023-05-05T17:37:14.183Z,20.15
2023-05-05T17:39:40.807Z,20.07
2023-05-05T17:42:07.447Z,19.90
2023-05-05T17:44:34.094Z,19.67
2023-05-05T17:47:02.769Z,19.66
2023-05-05T17:49:29.884Z,19.68
2023-05-05T17:51:56.575Z,19.46
2023-05-05T17:54:23.483Z,19.42
2023-05-05T17:56:50.094Z,19.43
2023-05-05T17:59:16.713Z,19.28
2023-05-05T18:01:43.436Z,19.23
2023-05-05T18:04:10.383Z,19.10
2023-05-05T18:06:37.242Z,19.03
2023-05-05T18:09:03.970Z,18.95
2023-05-05T18:11:31.572Z,18.89
2023-05-05T18:13:58.421Z,18.80
2023-05-05T18:16:25.416Z,18.68
2023-05-05T18:18:52.784Z,18.57
2023-05-05T18:21:19.425Z,18.44
2023-05-05T18:23:46.238Z,18.40
2023-05-05T18:26:12.893Z,18.24
2023-05-05T18:28:39.532Z,18.24
2023-05-05T18:31:06.560Z,18.15
2023-05-05T18:33:33.276Z,17.98
2023-05-05T18:35:59.930Z,17.90
2023-05-05T18:38:26.813Z,17.82
2023-05-05T18:40:53.650Z,17.74
2023-05-05T18:43:20.448Z,17.64
2023-05-05T18:45:47.362Z,17.57
2023-05-05T18:48:14.097Z,17.51
2023-05-05T18:50:41.209Z,17.46
2023-05-05T18:53:07.972Z,17.37
2023-05-05T18:55:34.621Z,17.25
2023-05-05T18:58:01.409Z,17.16
2023-05-05T19:00:28.068Z,16.96
2023-05-05T19:02:54.768Z,16.83
2023-05-05T19:05:21.625Z,16.78
2023-05-05T19:07:48.326Z,16.68
2023-05-05T19:10:15.002Z,16.56
2023-05-05T19:12:41.665Z,16.48
2023-05-05T19:15:08.903Z,16.43
2023-05-05T19:17:36.557Z,16.32
2023-05-05T19:20:03.392Z,16.20
2023-05-05T19:22:30.354Z,16.19
2023-05-05T19:24:57.077Z,16.14
2023-05-05T19:27:23.727Z,16.10
2023-05-05T19:29:52.520Z,16.02
2023-05-05T19:32:20.489Z,16.02
2023-05-05T19:34:47.584Z,15.87
2023-05-05T19:37:14.277Z,15.90
2023-05-05T19:39:43.112Z,15.73
2023-05-05T19:42:09.837Z,15.68
2023-05-05T19:44:36.491Z,15.55
2023-05-05T19:47:03.299Z,15.53
2023-05-05T19:49:30.169Z,15.56
2023-05-05T19:51:57.559Z,15.54
2023-05-05T19:54:24.803Z,15.51
2023-05-05T19:56:51.764Z,15.46
2023-05-05T19:59:18.431Z,15.39
2023-05-05T20:01:45.232Z,15.32
2023-05-05T20:04:12.017Z,15.36
2023-05-05T20:06:38.993Z,15.34
2023-05-05T20:09:05.714Z,15.27
2023-05-05T20:11:33.303Z,15.08
2023-05-05T20:13:59.978Z,15.10
2023-05-05T20:16:26.825Z,15.18
2023-05-05T20:18:53.658Z,15.14
2023-05-05T20:21:21.711Z,15.11
2023-05-05T20:23:48.383Z,15.11
2023-05-05T20:26:15.319Z,15.03
2023-05-05T20:28:45.124Z,15.03
2023-05-05T20:31:15.027Z,14.90
2023-05-05T20:33:41.770Z,14.81
2023-05-05T20:36:08.423Z,14.77
2023-05-05T20:38:35.090Z,14.77
2023-05-05T20:41:01.804Z,14.72
2023-05-05T20:43:28.547Z,14.73
2023-05-05T20:45:55.487Z,14.68
2023-05-05T20:48:22.215Z,14.63
2023-05-05T20:50:48.980Z,14.59
2023-05-05T20:53:18.857Z,14.49
2023-05-05T20:55:45.578Z,14.47
2023-05-05T20:58:12.522Z,14.46
2023-05-05T21:00:39.327Z,14.45
2023-05-05T21:03:06.170Z,14.47
2023-05-05T21:05:32.930Z,14.38
2023-05-05T21:08:01.156Z,14.39
2023-05-05T21:10:29.078Z,14.43
2023-05-05T21:12:55.949Z,14.33
2023-05-05T21:15:22.896Z,14.23
2023-05-05T21:17:49.674Z,14.20
2023-05-05T21:20:16.975Z,14.19
2023-05-05T21:22:44.039Z,14.17
2023-05-05T21:25:21.145Z,14.21
2023-05-05T21:27:48.617Z,14.16
2023-05-05T21:30:15.898Z,14.16
2023-05-05T21:32:43.052Z,14.09
2023-05-05T21:35:10.434Z,14.00
2023-05-05T21:37:38.471Z,13.82
2023-05-05T21:40:07.228Z,13.73
2023-05-05T21:42:34.002Z,13.76
2023-05-05T21:45:00.655Z,13.67
2023-05-05T21:47:27.421Z,13.61
2023-05-05T21:49:54.072Z,13.52
2023-05-05T21:52:20.886Z,13.48
2023-05-05T21:54:47.627Z,13.51
2023-05-05T21:57:14.290Z,13.50
2023-05-05T21:59:41.325Z,13.43
2023-05-05T22:02:07.991Z,13.49
2023-05-05T22:04:34.727Z,13.53
2023-05-05T22:07:01.441Z,13.57
2023-05-05T22:09:28.140Z,13.54
2023-05-05T22:11:54.893Z,13.50
2023-05-05T22:14:21.565Z,13.45
2023-05-05T22:16:48.235Z,13.49
2023-05-05T22:19:14.890Z,13.45
2023-05-05T22:21:41.519Z,13.34
2023-05-05T22:24:08.176Z,13.27
2023-05-05T22:26:34.850Z,13.18
2023-05-05T22:29:01.621Z,13.17
2023-05-05T22:31:29.453Z,13.14
2023-05-05T22:33:56.231Z,13.04
2023-05-05T22:36:23.297Z,13.04
2023-05-05T22:38:49.930Z,12.99
2023-05-05T22:41:16.582Z,13.01
2023-05-05T22:43:43.229Z,13.04
2023-05-05T22:46:09.969Z,13.05
2023-05-05T22:48:36.754Z,12.98
2023-05-05T22:51:03.701Z,12.88
2023-05-05T22:53:30.356Z,12.71
2023-05-05T22:55:58.403Z,12.54
2023-05-05T22:58:25.789Z,12.44
2023-05-05T23:00:52.541Z,12.39
2023-05-05T23:03:19.315Z,12.46
2023-05-05T23:05:46.014Z,12.55
2023-05-05T23:08:12.717Z,12.63
2023-05-05T23:10:39.421Z,12.69
2023-05-05T23:13:06.195Z,12.63
2023-05-05T23:15:32.942Z,12.60
2023-05-05T23:17:59.625Z,12.54
2023-05-05T23:20:26.447Z,12.49
2023-05-05T23:22:53.370Z,12.53
2023-05-05T23:25:19.994Z,12.62
2023-05-05T23:27:46.658Z,12.56
2023-05-05T23:30:13.705Z,12.51
2023-05-05T23:32:40.467Z,12.53
2023-05-05T23:35:07.829Z,12.52
2023-05-05T23:37:34.772Z,12.50
2023-05-05T23:40:01.409Z,12.42
2023-05-05T23:42:28.043Z,12.38
2023-05-05T23:44:54.673Z,12.31
2023-05-05T23:47:21.329Z,12.34
2023-05-05T23:49:48.009Z,12.17
2023-05-05T23:52:14.687Z,12.08
2023-05-05T23:54:41.637Z,12.17
2023-05-05T23:57:08.284Z,12.19
2023-05-05T23:59:34.935Z,12.18
